Time;durP1;ratioP1;P1;durP2;ratioP2;P2;SDS_P1;SDS_P2;PMS_P1;PMS_P2;Temp;Humidity;BMP_temperature;BMP_pressure;BME280_temperature;BME280_humidity;BME280_pressure;Samples;Min_cycle;Max_cycle;Signal;HPM_P1;HPM_P2
2022/09/17 00:01:07;;;;;;;8.07;1.13;;;12.70;99.90;;;;;;4982275;28;20364;-72
2022/09/17 00:03:34;;;;;;;10.43;1.75;;;12.70;99.90;;;;;;4978645;28;20035;-73
2022/09/17 00:06:09;;;;;;;6.20;1.20;;;12.70;99.90;;;;;;4982528;28;20618;-72
2022/09/17 00:08:36;;;;;;;8.27;1.42;;;12.60;99.90;;;;;;4984603;28;20457;-73
2022/09/17 00:11:10;;;;;;;14.88;2.28;;;12.60;99.90;;;;;;4985006;28;20022;-73
2022/09/17 00:13:36;;;;;;;14.80;1.60;;;12.60;99.90;;;;;;4981332;28;20057;-72
2022/09/17 00:16:02;;;;;;;8.48;1.70;;;12.60;99.90;;;;;;4985273;28;20033;-72
2022/09/17 00:18:28;;;;;;;10.15;1.75;;;12.60;99.90;;;;;;4978880;28;20380;-73
2022/09/17 00:20:54;;;;;;;11.50;2.20;;;12.60;99.90;;;;;;4986062;28;20037;-73
2022/09/17 00:23:19;;;;;;;10.05;2.22;;;12.70;99.90;;;;;;4981252;28;20034;-72
2022/09/17 00:25:50;;;;;;;9.80;2.15;;;12.60;99.90;;;;;;4979917;28;20026;-73
2022/09/17 00:28:18;;;;;;;14.40;2.05;;;12.60;99.90;;;;;;4979685;28;20026;-73
2022/09/17 00:30:45;;;;;;;10.07;2.25;;;12.50;99.90;;;;;;4979408;28;20800;-72
2022/09/17 00:33:16;;;;;;;12.20;2.13;;;12.50;99.90;;;;;;4979822;28;20035;-73
2022/09/17 00:35:42;;;;;;;13.00;2.03;;;12.40;99.90;;;;;;4979870;28;20360;-72
2022/09/17 00:38:08;;;;;;;12.00;1.65;;;12.50;99.90;;;;;;4981061;28;20027;-73
2022/09/17 00:40:36;;;;;;;9.38;2.08;;;12.40;99.90;;;;;;4983700;28;20026;-73
2022/09/17 00:43:12;;;;;;;12.95;2.13;;;12.30;99.90;;;;;;4983805;28;20026;-73
2022/09/17 00:45:38;;;;;;;14.68;2.33;;;12.40;99.90;;;;;;4984422;28;20471;-74
2022/09/17 00:48:10;;;;;;;8.88;2.33;;;12.30;99.90;;;;;;4980473;28;20022;-73
2022/09/17 00:50:41;;;;;;;8.45;2.15;;;12.30;99.90;;;;;;4978835;28;20026;-72
2022/09/17 00:53:21;;;;;;;11.93;2.30;;;12.30;99.90;;;;;;4979790;28;20054;-72
2022/09/17 00:55:54;;;;;;;10.45;2.05;;;12.40;99.90;;;;;;4982973;28;20076;-73
2022/09/17 00:58:23;;;;;;;;;;;12.30;99.90;;;;;;4978595;28;20045;-75
2022/09/17 01:00:48;;;;;;;10.57;1.73;;;12.30;99.90;;;;;;4976914;28;19940;-73
2022/09/17 01:03:17;;;;;;;21.20;2.33;;;12.40;99.90;;;;;;4982681;28;20034;-73
2022/09/17 01:05:51;;;;;;;12.60;1.92;;;12.30;99.90;;;;;;4981039;28;20405;-73
2022/09/17 01:08:22;;;;;;;9.55;1.73;;;12.30;99.90;;;;;;4981929;28;20436;-73
2022/09/17 01:11:17;;;;;;;9.05;1.67;;;12.40;99.90;;;;;;4990284;28;20042;-73
2022/09/17 01:13:56;;;;;;;11.32;1.90;;;12.40;99.90;;;;;;4980855;28;20102;-72
2022/09/17 01:16:42;;;;;;;14.02;2.08;;;12.40;99.90;;;;;;4981510;28;20026;-73
2022/09/17 01:19:17;;;;;;;9.00;1.50;;;12.50;99.90;;;;;;4983137;28;20034;-73
2022/09/17 01:21:58;;;;;;;17.75;2.60;;;12.50;99.90;;;;;;4984555;28;20031;-73
2022/09/17 01:24:32;;;;;;;9.35;1.90;;;12.50;99.90;;;;;;4980472;28;20510;-73
2022/09/17 01:27:29;;;;;;;12.15;1.75;;;12.60;99.90;;;;;;4985100;28;20488;-73
2022/09/17 01:30:16;;;;;;;8.80;1.70;;;12.60;99.90;;;;;;4981929;28;20387;-71
2022/09/17 01:33:07;;;;;;;14.07;2.88;;;12.60;99.90;;;;;;4982038;28;20154;-73
2022/09/17 01:36:10;;;;;;;17.70;2.13;;;12.60;99.90;;;;;;4982932;28;20041;-73
2022/09/17 01:39:04;;;;;;;12.30;2.30;;;12.60;99.90;;;;;;4982500;28;20034;-72
2022/09/17 01:41:29;;;;;;;;;;;12.60;99.90;;;;;;4982545;28;20043;-73
2022/09/17 01:44:01;;;;;;;11.93;1.30;;;12.60;99.90;;;;;;4980608;28;19912;-73
2022/09/17 01:46:43;;;;;;;10.05;1.38;;;12.60;99.90;;;;;;4979781;28;20027;-73
2022/09/17 01:49:12;;;;;;;20.27;1.92;;;12.70;99.90;;;;;;4993999;28;20026;-72
2022/09/17 01:51:41;;;;;;;14.85;2.22;;;12.70;99.90;;;;;;4979334;28;20038;-72
2022/09/17 01:54:11;;;;;;;10.90;1.58;;;12.70;99.90;;;;;;4980304;28;20033;-73
2022/09/17 01:56:48;;;;;;;14.30;1.95;;;12.70;99.90;;;;;;4980925;28;20053;-73
2022/09/17 01:59:28;;;;;;;16.52;2.15;;;12.70;99.90;;;;;;4978366;28;20091;-73
2022/09/17 02:02:05;;;;;;;14.65;1.77;;;12.70;99.90;;;;;;4976063;28;20367;-73
2022/09/17 02:04:38;;;;;;;7.20;1.92;;;12.70;99.90;;;;;;4984213;28;20018;-72
2022/09/17 02:07:11;;;;;;;13.57;1.88;;;12.80;99.90;;;;;;4981040;28;20023;-73
2022/09/17 02:09:45;;;;;;;12.95;1.73;;;12.80;99.90;;;;;;4984456;28;20121;-72
2022/09/17 02:12:17;;;;;;;16.48;2.00;;;12.70;99.90;;;;;;4987086;28;20105;-72
2022/09/17 02:14:50;;;;;;;8.55;1.75;;;12.60;99.90;;;;;;4994400;28;20050;-73
2022/09/17 02:17:33;;;;;;;12.63;1.92;;;12.60;99.90;;;;;;4984694;28;20460;-73
2022/09/17 02:20:01;;;;;;;;;;;12.60;99.90;;;;;;4979725;28;20049;-73
2022/09/17 02:22:43;;;;;;;15.45;1.80;;;12.50;99.90;;;;;;4984492;28;20347;-72
2022/09/17 02:25:37;;;;;;;14.75;2.28;;;12.50;99.90;;;;;;4982566;28;20102;-72
2022/09/17 02:28:29;;;;;;;9.57;1.80;;;12.50;99.90;;;;;;4978936;28;20019;-73
2022/09/17 02:30:55;;;;;;;15.90;1.88;;;12.50;99.90;;;;;;4979713;28;20035;-73
2022/09/17 02:33:22;;;;;;;16.25;2.47;;;12.50;99.90;;;;;;4981592;28;20138;-73
2022/09/17 02:35:47;;;;;;;10.77;2.15;;;12.50;99.90;;;;;;4979848;28;20113;-72
2022/09/17 02:38:20;;;;;;;13.25;2.05;;;12.50;99.90;;;;;;4982182;28;20173;-71
2022/09/17 02:40:53;;;;;;;18.75;1.77;;;12.50;99.90;;;;;;4976754;28;20455;-73
2022/09/17 02:43:27;;;;;;;;;;;12.50;99.90;;;;;;4982980;28;20035;-72
2022/09/17 02:46:10;;;;;;;7.05;1.30;;;12.50;99.90;;;;;;4978419;28;19910;-73
2022/09/17 02:48:48;;;;;;;12.57;2.15;;;12.50;99.90;;;;;;4977781;28;20030;-74
2022/09/17 02:51:13;;;;;;;12.45;1.77;;;12.60;99.90;;;;;;4975485;28;20379;-73
2022/09/17 02:54:08;;;;;;;12.48;1.77;;;12.70;99.90;;;;;;4987906;28;20035;-73
2022/09/17 02:56:42;;;;;;;10.05;1.42;;;12.60;99.90;;;;;;4978322;28;20388;-73
2022/09/17 02:59:10;;;;;;;10.93;1.60;;;12.70;99.90;;;;;;4985343;28;20030;-72
2022/09/17 03:02:02;;;;;;;6.53;1.13;;;12.80;99.90;;;;;;4977421;28;20076;-72
2022/09/17 03:04:29;;;;;;;13.77;1.58;;;12.80;99.90;;;;;;4979933;28;20019;-73
2022/09/17 03:06:55;;;;;;;14.68;1.95;;;12.80;99.90;;;;;;4978593;28;20027;-73
2022/09/17 03:09:21;;;;;;;10.68;1.30;;;12.80;99.90;;;;;;4979812;28;20425;-72
2022/09/17 03:11:49;;;;;;;7.68;1.08;;;12.90;99.90;;;;;;4982911;28;20121;-74
2022/09/17 03:14:19;;;;;;;9.93;1.83;;;12.90;99.90;;;;;;4978871;28;20023;-73
2022/09/17 03:16:45;;;;;;;6.47;1.13;;;12.80;99.90;;;;;;4978359;28;20033;-73
2022/09/17 03:19:11;;;;;;;6.65;1.33;;;12.90;99.90;;;;;;4978681;28;20047;-73
2022/09/17 03:21:41;;;;;;;9.20;1.30;;;12.80;99.90;;;;;;4983106;28;20030;-73
2022/09/17 03:24:10;;;;;;;9.93;1.40;;;12.80;99.90;;;;;;4990096;28;20479;-73
2022/09/17 03:26:38;;;;;;;12.77;1.30;;;12.90;99.90;;;;;;4987621;28;20027;-73
2022/09/17 03:29:04;;;;;;;6.47;1.30;;;12.80;99.90;;;;;;4984285;28;20886;-74
2022/09/17 03:31:30;;;;;;;8.85;1.00;;;12.80;99.90;;;;;;4980679;28;20030;-73
2022/09/17 03:33:58;;;;;;;10.32;1.42;;;12.70;99.90;;;;;;4983287;28;20054;-74
2022/09/17 03:36:24;;;;;;;11.82;1.40;;;12.70;99.90;;;;;;4982583;28;20054;-73
2022/09/17 03:39:00;;;;;;;8.25;1.30;;;12.70;99.90;;;;;;4983526;28;20105;-73
2022/09/17 03:41:26;;;;;;;6.82;1.02;;;12.80;99.90;;;;;;4978666;28;20090;-73
2022/09/17 03:43:52;;;;;;;6.43;1.25;;;12.80;99.90;;;;;;4982213;28;20145;-73
2022/09/17 03:46:18;;;;;;;10.27;1.38;;;12.80;99.90;;;;;;4982919;28;20037;-73
2022/09/17 03:48:44;;;;;;;6.25;1.58;;;12.80;99.90;;;;;;4986042;28;20347;-73
2022/09/17 03:51:09;;;;;;;7.93;1.17;;;12.90;99.90;;;;;;4984759;28;20023;-73
2022/09/17 03:53:35;;;;;;;12.35;1.40;;;12.80;99.90;;;;;;4983527;28;20030;-73
2022/09/17 03:56:02;;;;;;;6.40;1.20;;;12.90;99.90;;;;;;4981902;28;20367;-74
2022/09/17 03:58:29;;;;;;;7.18;1.17;;;12.80;99.90;;;;;;4982796;28;20034;-74
2022/09/17 04:00:56;;;;;;;11.75;1.40;;;12.70;99.90;;;;;;4981560;28;20097;-73
2022/09/17 04:03:23;;;;;;;16.30;1.40;;;12.70;99.90;;;;;;4982688;28;20033;-74
2022/09/17 04:05:52;;;;;;;12.88;1.55;;;12.70;99.90;;;;;;4979128;28;20593;-75
2022/09/17 04:08:18;;;;;;;7.68;1.50;;;12.70;99.90;;;;;;4986976;28;20061;-74
2022/09/17 04:10:44;;;;;;;13.68;1.52;;;12.70;99.90;;;;;;4986883;28;20519;-74
2022/09/17 04:13:11;;;;;;;12.93;1.60;;;12.70;99.90;;;;;;4986416;28;20038;-73
2022/09/17 04:15:36;;;;;;;11.35;1.45;;;12.60;99.90;;;;;;4981316;28;20031;-72
2022/09/17 04:18:05;;;;;;;8.63;1.60;;;12.50;99.90;;;;;;4982975;28;20061;-71
2022/09/17 04:20:33;;;;;;;9.40;1.27;;;12.50;99.90;;;;;;4984042;28;20041;-74
2022/09/17 04:22:59;;;;;;;8.90;1.10;;;12.30;99.90;;;;;;4985748;28;20030;-71
2022/09/17 04:25:27;;;;;;;15.27;1.92;;;12.40;99.90;;;;;;4987161;28;20503;-75
2022/09/17 04:27:52;;;;;;;12.73;1.77;;;12.40;99.90;;;;;;4980850;28;20031;-75
2022/09/17 04:30:18;;;;;;;8.45;1.30;;;12.30;99.90;;;;;;4978065;28;20023;-72
2022/09/17 04:32:45;;;;;;;12.65;1.58;;;12.30;99.90;;;;;;4981066;28;20090;-75
2022/09/17 04:35:15;;;;;;;16.58;1.70;;;12.20;99.90;;;;;;4981705;28;21406;-75
2022/09/17 04:37:41;;;;;;;15.68;1.58;;;12.20;99.90;;;;;;4978559;28;20070;-73
2022/09/17 04:40:09;;;;;;;7.40;1.40;;;12.10;99.90;;;;;;4982171;28;20058;-73
2022/09/17 04:42:37;;;;;;;10.98;1.65;;;12.20;99.90;;;;;;4996296;28;20447;-71
2022/09/17 04:45:03;;;;;;;6.95;1.35;;;12.20;99.90;;;;;;4977686;28;20045;-72
2022/09/17 04:47:29;;;;;;;11.88;1.50;;;12.20;99.90;;;;;;4983063;28;20026;-72
2022/09/17 04:49:55;;;;;;;13.40;2.13;;;12.30;99.90;;;;;;4978216;28;20033;-73
2022/09/17 04:52:20;;;;;;;8.98;1.73;;;12.30;99.90;;;;;;4981443;28;20069;-73
2022/09/17 04:54:46;;;;;;;14.57;1.60;;;12.30;99.90;;;;;;4979385;28;20027;-72
2022/09/17 04:57:11;;;;;;;17.95;1.95;;;12.40;99.90;;;;;;4985568;28;20030;-73
2022/09/17 04:59:37;;;;;;;13.02;1.90;;;12.40;99.90;;;;;;4977253;28;20460;-72
2022/09/17 05:02:03;;;;;;;9.88;1.23;;;12.40;99.90;;;;;;4981379;28;20078;-73
2022/09/17 05:04:28;;;;;;;12.07;1.55;;;12.40;99.90;;;;;;4979445;28;20098;-72
2022/09/17 05:06:56;;;;;;;14.02;1.73;;;12.30;99.90;;;;;;4979898;28;20118;-73
2022/09/17 05:09:22;;;;;;;13.10;1.88;;;12.20;99.90;;;;;;4978367;28;20596;-75
2022/09/17 05:11:48;;;;;;;4.38;1.30;;;12.10;99.90;;;;;;4942283;28;1140421;-75
2022/09/17 05:14:13;;;;;;;12.82;1.73;;;12.10;99.90;;;;;;4979814;28;20037;-75
2022/09/17 05:16:39;;;;;;;10.00;2.30;;;12.10;99.90;;;;;;4982301;28;20030;-75
2022/09/17 05:19:05;;;;;;;11.32;2.35;;;12.10;99.90;;;;;;4982838;28;20030;-72
2022/09/17 05:21:30;;;;;;;9.60;1.40;;;12.00;99.90;;;;;;4981478;28;20037;-73
2022/09/17 05:24:00;;;;;;;9.35;1.58;;;11.90;99.90;;;;;;4979164;28;20523;-74
2022/09/17 05:26:28;;;;;;;15.10;1.73;;;11.90;99.90;;;;;;4978172;28;20015;-73
2022/09/17 05:28:54;;;;;;;9.52;1.77;;;11.80;99.90;;;;;;4977456;28;20023;-72
2022/09/17 05:31:20;;;;;;;10.82;1.52;;;11.80;99.90;;;;;;4978382;28;20022;-73
2022/09/17 05:33:50;;;;;;;11.90;1.92;;;11.70;99.90;;;;;;4978663;28;20161;-72
2022/09/17 05:36:18;;;;;;;10.45;1.15;;;11.70;99.90;;;;;;4981092;28;20440;-73
2022/09/17 05:38:44;;;;;;;11.10;1.30;;;11.70;99.90;;;;;;4981242;28;20023;-73
2022/09/17 05:41:12;;;;;;;12.05;1.40;;;11.80;99.90;;;;;;4977990;28;20372;-73
2022/09/17 05:43:40;;;;;;;7.22;1.65;;;11.80;99.90;;;;;;4979859;28;20061;-74
2022/09/17 05:46:06;;;;;;;8.43;1.10;;;11.90;99.90;;;;;;4980362;28;20019;-73
2022/09/17 05:48:34;;;;;;;13.07;1.60;;;12.00;99.90;;;;;;4979353;28;20477;-73
2022/09/17 05:51:02;;;;;;;11.20;1.52;;;12.10;99.90;;;;;;4981580;28;20022;-74
2022/09/17 05:53:30;;;;;;;7.95;1.20;;;12.10;99.90;;;;;;4980033;28;20471;-75
2022/09/17 05:56:02;;;;;;;7.88;1.45;;;12.20;99.90;;;;;;4981306;28;20041;-73
2022/09/17 05:58:28;;;;;;;6.57;1.08;;;12.20;99.90;;;;;;4978108;28;20127;-72
2022/09/17 06:00:54;;;;;;;16.73;1.50;;;12.20;99.90;;;;;;4982390;28;20116;-73
2022/09/17 06:03:21;;;;;;;13.35;1.50;;;12.30;99.90;;;;;;4980813;28;20027;-73
2022/09/17 06:05:57;;;;;;;12.63;1.90;;;12.30;99.90;;;;;;4977115;28;20019;-72
2022/09/17 06:08:26;;;;;;;16.23;1.60;;;12.30;99.90;;;;;;4977726;28;20031;-74
2022/09/17 06:10:57;;;;;;;12.40;2.50;;;12.30;99.90;;;;;;4978283;28;20109;-72
2022/09/17 06:13:23;;;;;;;10.52;1.30;;;12.30;99.90;;;;;;4980489;28;20108;-74
2022/09/17 06:15:52;;;;;;;5.82;1.50;;;12.30;99.90;;;;;;4978783;28;20468;-74
2022/09/17 06:18:20;;;;;;;9.85;1.60;;;12.30;99.90;;;;;;4977407;28;20026;-74
2022/09/17 06:21:00;;;;;;;9.30;1.33;;;12.30;99.90;;;;;;4982434;28;20030;-74
2022/09/17 06:23:26;;;;;;;11.90;2.28;;;12.30;99.90;;;;;;4976185;28;20022;-73
2022/09/17 06:26:00;;;;;;;13.10;1.60;;;12.30;99.90;;;;;;4980916;28;20447;-73
2022/09/17 06:28:27;;;;;;;13.48;1.67;;;12.20;99.90;;;;;;4981233;28;20101;-73
2022/09/17 06:30:55;;;;;;;13.82;1.95;;;12.30;99.90;;;;;;4982775;28;20030;-73
2022/09/17 06:33:24;;;;;;;8.82;1.90;;;12.30;99.90;;;;;;4977502;28;20030;-74
2022/09/17 06:36:09;;;;;;;18.35;1.80;;;12.40;99.90;;;;;;4982280;28;20085;-73
2022/09/17 06:38:35;;;;;;;11.25;1.63;;;12.40;99.90;;;;;;4984583;28;20026;-73
2022/09/17 06:41:02;;;;;;;14.70;1.70;;;12.60;99.90;;;;;;4978979;28;20093;-74
2022/09/17 06:43:28;;;;;;;13.25;2.28;;;12.60;99.90;;;;;;4976599;28;20436;-74
2022/09/17 06:46:01;;;;;;;12.00;1.27;;;12.80;99.90;;;;;;4975844;28;20023;-76
2022/09/17 06:48:28;;;;;;;10.13;2.20;;;12.80;99.90;;;;;;4978844;28;20031;-72
2022/09/17 06:51:00;;;;;;;13.25;1.45;;;12.80;99.90;;;;;;4979672;28;20157;-74
2022/09/17 06:53:26;;;;;;;10.93;1.50;;;12.70;99.90;;;;;;4978078;28;20562;-73
2022/09/17 06:55:55;;;;;;;10.70;1.92;;;12.70;99.90;;;;;;4982231;28;20026;-74
2022/09/17 06:58:21;;;;;;;8.98;1.30;;;12.60;99.90;;;;;;4980060;28;20113;-72
2022/09/17 07:00:46;;;;;;;10.82;1.10;;;12.50;99.90;;;;;;4978861;28;20106;-74
2022/09/17 07:03:12;;;;;;;6.70;1.30;;;12.50;99.90;;;;;;4979081;28;20464;-73
2022/09/17 07:05:38;;;;;;;8.93;1.25;;;12.50;99.90;;;;;;4979896;28;20035;-73
2022/09/17 07:08:04;;;;;;;9.75;1.40;;;12.50;99.90;;;;;;4976585;28;20045;-73
2022/09/17 07:10:30;;;;;;;9.43;1.70;;;12.50;99.90;;;;;;4977285;28;20030;-75
2022/09/17 07:12:57;;;;;;;5.75;1.15;;;12.50;99.90;;;;;;4973825;28;20042;-74
2022/09/17 07:15:23;;;;;;;11.63;2.10;;;12.60;99.90;;;;;;4978297;28;20026;-73
2022/09/17 07:17:49;;;;;;;15.27;1.00;;;12.70;99.90;;;;;;4975524;28;20465;-73
2022/09/17 07:20:17;;;;;;;7.80;1.17;;;12.70;99.90;;;;;;4982020;28;20113;-74
2022/09/17 07:22:43;;;;;;;10.38;1.67;;;12.80;99.90;;;;;;4978070;28;20042;-73
2022/09/17 07:25:09;;;;;;;13.20;1.35;;;12.80;99.90;;;;;;4980222;28;20023;-75
2022/09/17 07:27:35;;;;;;;9.82;1.30;;;12.90;99.90;;;;;;4979733;28;20080;-75
2022/09/17 07:30:03;;;;;;;8.65;1.25;;;12.90;99.90;;;;;;4979783;28;20026;-72
2022/09/17 07:32:30;;;;;;;8.15;1.23;;;12.90;99.90;;;;;;4977009;28;20042;-74
2022/09/17 07:34:56;;;;;;;13.90;1.92;;;12.90;99.90;;;;;;4978132;28;20847;-72
2022/09/17 07:37:21;;;;;;;9.50;1.90;;;13.00;99.90;;;;;;4977520;28;20097;-72
2022/09/17 07:39:49;;;;;;;6.32;1.30;;;13.10;99.90;;;;;;4978663;28;20039;-70
2022/09/17 07:42:17;;;;;;;10.07;1.40;;;13.10;99.90;;;;;;4975631;28;20035;-75
2022/09/17 07:44:44;;;;;;;11.88;1.48;;;13.20;99.90;;;;;;4984187;28;20409;-72
2022/09/17 07:47:10;;;;;;;9.18;2.08;;;13.20;99.90;;;;;;4977143;28;20101;-75
2022/09/17 07:49:38;;;;;;;6.18;1.52;;;13.40;99.90;;;;;;4980571;28;20027;-73
2022/09/17 07:52:05;;;;;;;12.48;1.85;;;13.60;99.90;;;;;;4980684;28;20161;-75
2022/09/17 07:54:36;;;;;;;10.27;1.50;;;13.60;99.90;;;;;;4981073;28;20085;-75
2022/09/17 07:57:02;;;;;;;7.18;1.40;;;13.60;99.90;;;;;;4974890;28;20766;-76
2022/09/17 07:59:31;;;;;;;11.25;1.42;;;13.60;99.90;;;;;;4977068;28;20034;-74
2022/09/17 08:01:56;;;;;;;8.38;1.88;;;13.80;99.90;;;;;;4976805;28;20037;-73
2022/09/17 08:04:22;;;;;;;7.90;1.25;;;13.90;99.90;;;;;;4978139;28;20023;-75
2022/09/17 08:06:48;;;;;;;9.80;1.35;;;14.10;99.90;;;;;;4981243;28;20341;-73
2022/09/17 08:09:19;;;;;;;11.35;1.23;;;14.20;99.90;;;;;;4980439;28;20366;-74
2022/09/17 08:11:45;;;;;;;9.30;1.05;;;14.20;99.90;;;;;;4981904;28;20062;-73
2022/09/17 08:14:14;;;;;;;3.95;1.00;;;14.40;99.90;;;;;;4979547;28;20078;-73
2022/09/17 08:16:41;;;;;;;7.88;1.25;;;14.50;99.90;;;;;;4981496;28;20032;-71
2022/09/17 08:19:09;;;;;;;7.07;1.17;;;14.50;99.90;;;;;;4979010;28;20023;-73
2022/09/17 08:21:35;;;;;;;5.97;0.93;;;14.60;99.90;;;;;;4981338;28;20018;-74
2022/09/17 08:24:01;;;;;;;9.75;1.27;;;14.80;99.90;;;;;;4979631;28;20041;-76
2022/09/17 08:26:31;;;;;;;6.93;0.90;;;15.00;99.90;;;;;;4983357;28;20026;-73
2022/09/17 08:29:02;;;;;;;8.00;1.10;;;15.10;99.90;;;;;;4983000;28;20027;-75
2022/09/17 08:31:32;;;;;;;6.88;1.05;;;15.30;99.90;;;;;;4981313;28;20096;-74
2022/09/17 08:33:58;;;;;;;8.13;1.00;;;15.50;99.90;;;;;;4980139;28;20160;-76
2022/09/17 08:36:27;;;;;;;3.08;0.95;;;15.80;99.90;;;;;;4990122;28;20023;-75
2022/09/17 08:38:54;;;;;;;2.55;0.70;;;15.70;99.90;;;;;;4983699;28;20037;-74
2022/09/17 08:41:38;;;;;;;5.80;0.70;;;16.00;99.90;;;;;;4985984;28;20113;-77
2022/09/17 08:44:07;;;;;;;3.72;0.82;;;16.30;99.90;;;;;;4980491;28;20556;-73
2022/09/17 08:46:45;;;;;;;7.43;1.00;;;16.50;99.90;;;;;;4978455;28;20022;-74
2022/09/17 08:49:28;;;;;;;3.08;0.73;;;16.70;99.20;;;;;;4999162;28;20034;-73
2022/09/17 08:52:14;;;;;;;6.03;0.90;;;17.00;99.70;;;;;;4982095;28;20023;-73
2022/09/17 08:55:02;;;;;;;6.57;0.95;;;17.20;97.60;;;;;;4979247;28;20033;-76
2022/09/17 08:57:51;;;;;;;4.88;1.30;;;17.40;97.30;;;;;;4981446;28;20023;-72
2022/09/17 09:00:19;;;;;;;9.38;1.80;;;17.60;96.70;;;;;;4979739;28;20029;-72
2022/09/17 09:03:17;;;;;;;5.50;0.70;;;17.70;95.70;;;;;;4980032;28;20077;-72
2022/09/17 09:05:55;;;;;;;5.15;1.02;;;18.00;95.80;;;;;;4978161;28;20038;-75
2022/09/17 09:08:32;;;;;;;3.17;1.00;;;18.30;95.70;;;;;;4985085;28;20014;-78
2022/09/17 09:11:01;;;;;;;5.95;0.80;;;18.20;94.50;;;;;;4983470;28;20026;-75
2022/09/17 09:13:44;;;;;;;3.38;0.90;;;17.70;94.90;;;;;;4982985;28;20030;-76
2022/09/17 09:16:39;;;;;;;5.40;0.98;;;17.40;96.10;;;;;;4978572;28;20058;-76
2022/09/17 09:19:27;;;;;;;3.75;0.90;;;17.00;95.70;;;;;;4979303;28;20036;-74
2022/09/17 09:22:10;;;;;;;9.82;1.10;;;17.40;96.00;;;;;;4977588;28;20154;-74
2022/09/17 09:24:40;;;;;;;3.53;1.00;;;17.50;95.10;;;;;;4977423;28;20112;-75
2022/09/17 09:27:17;;;;;;;5.15;0.98;;;17.80;95.80;;;;;;4978925;28;20027;-74
2022/09/17 09:30:00;;;;;;;2.60;1.00;;;19.70;94.60;;;;;;4979324;28;20105;-75
2022/09/17 09:33:06;;;;;;;4.57;0.95;;;20.90;92.20;;;;;;4979938;28;20037;-76
2022/09/17 09:35:38;;;;;;;4.97;1.00;;;22.60;90.30;;;;;;4943911;28;20043;-73
2022/09/17 09:38:21;;;;;;;6.82;1.10;;;23.10;84.10;;;;;;4977259;28;20463;-76
2022/09/17 09:40:50;;;;;;;;;;;22.90;82.30;;;;;;4985075;28;20043;-75
2022/09/17 09:43:39;;;;;;;4.35;1.38;;;22.70;78.80;;;;;;4986065;28;19913;-74
2022/09/17 09:46:11;;;;;;;4.85;1.05;;;22.60;79.80;;;;;;4981162;28;20391;-75
2022/09/17 09:48:55;;;;;;;2.50;0.88;;;21.80;80.60;;;;;;4981541;28;20027;-75
2022/09/17 09:51:29;;;;;;;5.18;1.23;;;21.80;77.90;;;;;;4980373;28;20030;-70
2022/09/17 09:54:31;;;;;;;4.40;1.38;;;21.00;81.10;;;;;;4980219;28;20026;-74
2022/09/17 09:57:04;;;;;;;2.20;1.30;;;20.40;82.00;;;;;;4975206;28;20038;-73
2022/09/17 09:59:29;;;;;;;4.28;1.08;;;19.80;86.00;;;;;;4988093;28;20134;-72
2022/09/17 10:01:55;;;;;;;7.18;1.05;;;19.30;87.70;;;;;;4982062;28;20093;-76
2022/09/17 10:04:25;;;;;;;8.50;1.38;;;18.90;90.10;;;;;;4978650;28;20023;-74
2022/09/17 10:07:05;;;;;;;4.40;1.15;;;18.60;90.60;;;;;;4985767;28;20058;-72
2022/09/17 10:09:36;;;;;;;4.50;1.00;;;18.50;91.30;;;;;;4984169;28;20098;-74
2022/09/17 10:12:07;;;;;;;1.42;0.57;;;18.30;90.70;;;;;;4984142;28;20084;-76
2022/09/17 10:14:41;;;;;;;1.90;0.73;;;17.90;91.50;;;;;;4985589;28;20026;-73
2022/09/17 10:17:14;;;;;;;2.33;0.80;;;17.30;94.90;;;;;;4981742;28;20102;-75
2022/09/17 10:19:40;;;;;;;;;;;16.50;98.40;;;;;;4999316;28;20058;-78
2022/09/17 10:22:20;;;;;;;5.47;0.85;;;16.20;99.30;;;;;;4982879;28;19961;-76
2022/09/17 10:24:50;;;;;;;9.07;1.25;;;15.70;99.90;;;;;;4981726;28;20407;-77
2022/09/17 10:27:18;;;;;;;7.25;0.70;;;15.00;99.90;;;;;;4984300;28;20054;-74
2022/09/17 10:29:48;;;;;;;4.03;0.70;;;14.40;99.90;;;;;;4967471;28;20552;-77
2022/09/17 10:32:21;;;;;;;4.75;0.73;;;14.10;99.90;;;;;;4982223;28;20023;-74
2022/09/17 10:35:26;;;;;;;1.50;0.82;;;13.60;99.90;;;;;;4984880;28;20029;-74
2022/09/17 10:37:53;;;;;;;2.15;0.70;;;13.30;99.90;;;;;;4987164;28;20037;-75
2022/09/17 10:40:18;;;;;;;2.28;0.50;;;13.00;99.90;;;;;;4982791;28;20073;-75
2022/09/17 10:43:07;;;;;;;3.25;0.63;;;12.90;99.90;;;;;;4980763;28;20116;-74
2022/09/17 10:45:36;;;;;;;5.95;0.68;;;12.90;99.90;;;;;;4985437;28;20045;-72
2022/09/17 10:48:02;;;;;;;1.63;0.40;;;12.80;99.90;;;;;;4985405;28;20019;-73
2022/09/17 10:50:31;;;;;;;5.10;0.75;;;12.80;99.90;;;;;;4986927;28;20023;-76
2022/09/17 10:53:02;;;;;;;2.90;0.70;;;12.70;99.90;;;;;;4988156;28;20464;-77
2022/09/17 10:55:49;;;;;;;3.78;0.80;;;12.70;99.90;;;;;;4984850;28;20026;-76
2022/09/17 10:58:45;;;;;;;2.25;0.60;;;12.80;99.90;;;;;;4985227;28;20062;-72
2022/09/17 11:01:26;;;;;;;1.85;0.43;;;12.70;99.90;;;;;;4986088;28;20042;-76
2022/09/17 11:04:05;;;;;;;11.85;0.57;;;12.70;99.90;;;;;;4982474;28;20030;-75
2022/09/17 11:06:49;;;;;;;5.97;0.88;;;12.90;99.90;;;;;;4982498;28;20096;-74
2022/09/17 11:09:40;;;;;;;3.25;1.08;;;13.70;99.90;;;;;;4983055;28;20030;-76
2022/09/17 11:12:23;;;;;;;3.42;0.73;;;14.50;99.90;;;;;;4982718;28;20105;-76
2022/09/17 11:14:58;;;;;;;4.93;0.63;;;15.30;99.90;;;;;;4985489;28;20138;-72
2022/09/17 11:17:55;;;;;;;1.92;0.90;;;16.00;99.90;;;;;;4981770;28;20023;-75
2022/09/17 11:20:32;;;;;;;5.00;0.70;;;16.50;99.90;;;;;;4998648;28;20034;-73
2022/09/17 11:23:07;;;;;;;4.68;0.80;;;17.40;99.90;;;;;;4984376;28;20022;-76
2022/09/17 11:25:38;;;;;;;7.07;0.90;;;17.70;99.90;;;;;;4985455;28;20027;-76
2022/09/17 11:28:22;;;;;;;3.10;0.70;;;17.80;99.90;;;;;;4982746;28;20057;-76
2022/09/17 11:30:58;;;;;;;4.50;0.98;;;18.10;99.90;;;;;;4983952;28;20031;-75
2022/09/17 11:33:27;;;;;;;5.85;0.65;;;17.70;99.90;;;;;;4979799;28;20042;-74
2022/09/17 11:36:00;;;;;;;3.28;0.90;;;17.10;99.90;;;;;;4981089;28;20034;-74
2022/09/17 11:38:49;;;;;;;2.78;0.57;;;16.70;99.90;;;;;;4980667;28;20022;-76
2022/09/17 11:41:32;;;;;;;0.93;0.35;;;16.60;99.90;;;;;;4988419;28;20030;-74
2022/09/17 11:44:38;;;;;;;2.63;0.82;;;16.30;99.90;;;;;;4988304;28;20034;-75
2022/09/17 11:47:09;;;;;;;1.52;0.68;;;15.90;99.90;;;;;;4985677;28;20041;-75
2022/09/17 11:50:18;;;;;;;1.65;0.60;;;15.60;99.90;;;;;;4986420;28;20077;-70
2022/09/17 11:53:10;;;;;;;3.80;0.60;;;15.30;99.90;;;;;;4978959;28;20106;-72
2022/09/17 11:55:46;;;;;;;2.72;0.70;;;15.00;99.90;;;;;;4983919;28;20121;-74
2022/09/17 11:58:46;;;;;;;2.25;0.70;;;15.30;99.90;;;;;;4983625;28;20026;-75
2022/09/17 12:01:32;;;;;;;3.25;0.80;;;15.70;99.90;;;;;;4986152;28;20062;-75
2022/09/17 12:04:00;;;;;;;3.20;0.60;;;16.50;99.90;;;;;;4981519;28;20046;-74
2022/09/17 12:06:51;;;;;;;7.53;0.75;;;16.90;99.90;;;;;;4978754;28;20038;-76
2022/09/17 12:09:24;;;;;;;9.98;1.15;;;17.40;98.90;;;;;;4985581;28;20104;-74
2022/09/17 12:11:52;;;;;;;;;;;17.70;99.10;;;;;;4985965;28;20110;-76
2022/09/17 12:14:48;;;;;;;1.67;0.80;;;18.00;97.10;;;;;;5002121;28;19910;-76
2022/09/17 12:17:41;;;;;;;3.40;0.65;;;18.60;97.00;;;;;;4985752;28;20112;-76
2022/09/17 12:20:35;;;;;;;3.28;0.60;;;18.60;93.70;;;;;;4984388;28;20645;-72
2022/09/17 12:23:05;;;;;;;2.20;0.60;;;18.80;93.90;;;;;;4997225;28;20117;-73
2022/09/17 12:26:04;;;;;;;1.83;0.60;;;18.70;93.60;;;;;;4989746;28;20411;-73
2022/09/17 12:28:40;;;;;;;2.58;0.60;;;18.60;94.40;;;;;;4988202;28;20030;-75
2022/09/17 12:31:16;;;;;;;3.25;0.88;;;19.00;94.50;;;;;;4981921;28;20034;-73
2022/09/17 12:34:25;;;;;;;2.45;0.60;;;19.60;95.20;;;;;;4985097;28;20057;-75
2022/09/17 12:37:09;;;;;;;6.20;1.15;;;19.70;93.30;;;;;;4984576;28;20105;-73
2022/09/17 12:39:40;;;;;;;4.15;1.15;;;19.70;92.30;;;;;;4987606;28;20027;-73
2022/09/17 12:42:30;;;;;;;6.63;0.90;;;20.30;92.40;;;;;;4982107;28;20110;-74
2022/09/17 12:45:32;;;;;;;4.50;1.65;;;20.40;91.60;;;;;;4984057;28;20109;-73
2022/09/17 12:48:30;;;;;;;2.83;0.88;;;20.70;90.90;;;;;;4983458;28;20073;-72
2022/09/17 12:51:14;;;;;;;4.50;0.73;;;20.40;91.30;;;;;;4973264;28;20475;-74
2022/09/17 12:53:48;;;;;;;5.13;1.27;;;19.70;91.80;;;;;;4981928;28;20046;-74
2022/09/17 12:56:47;;;;;;;5.32;0.93;;;18.80;93.10;;;;;;4984077;28;20019;-74
2022/09/17 12:59:19;;;;;;;4.95;0.82;;;18.40;94.00;;;;;;4982139;28;20026;-71
2022/09/17 13:02:19;;;;;;;7.63;0.98;;;17.60;95.90;;;;;;4996776;28;20495;-74
2022/09/17 13:05:11;;;;;;;1.20;0.68;;;16.20;98.80;;;;;;4980574;28;20478;-74
2022/09/17 13:08:08;;;;;;;4.67;0.70;;;15.20;99.90;;;;;;4984014;28;20054;-74
2022/09/17 13:11:05;;;;;;;1.90;0.45;;;14.60;99.90;;;;;;4988667;28;20047;-73
2022/09/17 13:13:48;;;;;;;4.38;0.52;;;14.20;99.90;;;;;;4981584;28;20141;-74
2022/09/17 13:16:41;;;;;;;7.10;0.75;;;14.20;99.90;;;;;;4987872;28;20356;-76
2022/09/17 13:19:25;;;;;;;4.03;0.57;;;14.90;99.90;;;;;;4984943;28;20026;-74